sensor_id;sensor_type;location;lat;lon;timestamp;P1;durP1;ratioP1;P2;durP2;ratioP2
71383;SDS011;67558;52.166;5.004;2023-03-11T00:00:37;0.73;;;0.68;;
71383;SDS011;67558;52.166;5.004;2023-03-11T00:03:05;3.67;;;0.77;;
71383;SDS011;67558;52.166;5.004;2023-03-11T00:05:34;2.75;;;0.98;;
71383;SDS011;67558;52.166;5.004;2023-03-11T00:08:04;0.80;;;0.80;;
71383;SDS011;67558;52.166;5.004;2023-03-11T00:10:32;1.10;;;1.00;;
71383;SDS011;67558;52.166;5.004;2023-03-11T00:13:08;2.85;;;1.50;;
71383;SDS011;67558;52.166;5.004;2023-03-11T00:15:36;5.60;;;0.85;;
71383;SDS011;67558;52.166;5.004;2023-03-11T00:18:02;0.77;;;0.77;;
71383;SDS011;67558;52.166;5.004;2023-03-11T00:20:29;1.83;;;1.00;;
71383;SDS011;67558;52.166;5.004;2023-03-11T00:22:56;2.33;;;0.65;;
71383;SDS011;67558;52.166;5.004;2023-03-11T00:25:23;1.15;;;1.08;;
71383;SDS011;67558;52.166;5.004;2023-03-11T00:27:51;0.70;;;0.70;;
71383;SDS011;67558;52.166;5.004;2023-03-11T00:30:16;2.47;;;0.82;;
71383;SDS011;67558;52.166;5.004;2023-03-11T00:32:44;1.23;;;0.65;;
71383;SDS011;67558;52.166;5.004;2023-03-11T00:35:16;0.52;;;0.52;;
71383;SDS011;67558;52.166;5.004;2023-03-11T00:37:44;5.88;;;0.68;;
71383;SDS011;67558;52.166;5.004;2023-03-11T00:40:12;0.55;;;0.55;;
71383;SDS011;67558;52.166;5.004;2023-03-11T00:42:41;0.95;;;0.95;;
71383;SDS011;67558;52.166;5.004;2023-03-11T00:45:07;1.52;;;0.70;;
71383;SDS011;67558;52.166;5.004;2023-03-11T00:47:33;1.85;;;0.90;;
71383;SDS011;67558;52.166;5.004;2023-03-11T00:49:58;2.55;;;1.27;;
71383;SDS011;67558;52.166;5.004;2023-03-11T00:52:24;3.75;;;2.30;;
71383;SDS011;67558;52.166;5.004;2023-03-11T00:54:49;10.98;;;4.03;;
71383;SDS011;67558;52.166;5.004;2023-03-11T00:57:15;13.20;;;5.43;;
71383;SDS011;67558;52.166;5.004;2023-03-11T00:59:40;7.28;;;5.00;;
71383;SDS011;67558;52.166;5.004;2023-03-11T01:02:05;8.63;;;4.63;;
71383;SDS011;67558;52.166;5.004;2023-03-11T01:04:31;4.95;;;2.60;;
71383;SDS011;67558;52.166;5.004;2023-03-11T01:06:56;2.20;;;1.58;;
71383;SDS011;67558;52.166;5.004;2023-03-11T01:09:22;3.80;;;2.00;;
71383;SDS011;67558;52.166;5.004;2023-03-11T01:11:47;4.43;;;1.33;;
71383;SDS011;67558;52.166;5.004;2023-03-11T01:14:12;3.20;;;1.52;;
71383;SDS011;67558;52.166;5.004;2023-03-11T01:16:38;1.40;;;0.93;;
71383;SDS011;67558;52.166;5.004;2023-03-11T01:19:03;1.25;;;1.15;;
71383;SDS011;67558;52.166;5.004;2023-03-11T01:21:28;1.63;;;1.13;;
71383;SDS011;67558;52.166;5.004;2023-03-11T01:23:54;3.58;;;1.10;;
71383;SDS011;67558;52.166;5.004;2023-03-11T01:26:19;1.30;;;0.90;;
71383;SDS011;67558;52.166;5.004;2023-03-11T01:28:44;1.88;;;1.35;;
71383;SDS011;67558;52.166;5.004;2023-03-11T01:31:10;3.10;;;0.90;;
71383;SDS011;67558;52.166;5.004;2023-03-11T01:33:35;2.30;;;1.63;;
71383;SDS011;67558;52.166;5.004;2023-03-11T01:36:01;15.85;;;1.30;;
71383;SDS011;67558;52.166;5.004;2023-03-11T01:38:26;1.13;;;0.95;;
71383;SDS011;67558;52.166;5.004;2023-03-11T01:40:52;0.80;;;0.80;;
71383;SDS011;67558;52.166;5.004;2023-03-11T01:48:27;0.88;;;0.82;;
71383;SDS011;67558;52.166;5.004;2023-03-11T01:50:53;2.35;;;1.40;;
71383;SDS011;67558;52.166;5.004;2023-03-11T01:53:20;0.95;;;0.60;;
71383;SDS011;67558;52.166;5.004;2023-03-11T01:55:46;1.65;;;0.82;;
71383;SDS011;67558;52.166;5.004;2023-03-11T01:58:17;2.53;;;0.70;;
71383;SDS011;67558;52.166;5.004;2023-03-11T02:00:47;1.10;;;1.00;;
71383;SDS011;67558;52.166;5.004;2023-03-11T02:03:14;0.63;;;0.57;;
71383;SDS011;67558;52.166;5.004;2023-03-11T02:05:52;1.55;;;1.45;;
71383;SDS011;67558;52.166;5.004;2023-03-11T02:08:20;1.05;;;0.70;;
71383;SDS011;67558;52.166;5.004;2023-03-11T02:10:46;3.03;;;1.55;;
71383;SDS011;67558;52.166;5.004;2023-03-11T02:13:16;2.55;;;0.93;;
71383;SDS011;67558;52.166;5.004;2023-03-11T02:15:42;6.72;;;0.90;;
71383;SDS011;67558;52.166;5.004;2023-03-11T02:18:08;1.02;;;0.75;;
71383;SDS011;67558;52.166;5.004;2023-03-11T02:20:45;1.80;;;1.00;;
71383;SDS011;67558;52.166;5.004;2023-03-11T02:23:17;1.30;;;0.93;;
71383;SDS011;67558;52.166;5.004;2023-03-11T02:25:56;0.47;;;0.47;;
71383;SDS011;67558;52.166;5.004;2023-03-11T02:28:29;0.90;;;0.82;;
71383;SDS011;67558;52.166;5.004;2023-03-11T02:30:56;1.27;;;1.17;;
71383;SDS011;67558;52.166;5.004;2023-03-11T02:33:23;5.22;;;1.13;;
71383;SDS011;67558;52.166;5.004;2023-03-11T02:35:53;0.85;;;0.73;;
71383;SDS011;67558;52.166;5.004;2023-03-11T02:38:18;7.70;;;0.70;;
71383;SDS011;67558;52.166;5.004;2023-03-11T02:40:59;0.88;;;0.88;;
71383;SDS011;67558;52.166;5.004;2023-03-11T02:43:37;0.90;;;0.85;;
71383;SDS011;67558;52.166;5.004;2023-03-11T02:46:06;7.38;;;0.80;;
71383;SDS011;67558;52.166;5.004;2023-03-11T02:48:34;1.25;;;0.80;;
71383;SDS011;67558;52.166;5.004;2023-03-11T02:51:00;0.98;;;0.60;;
71383;SDS011;67558;52.166;5.004;2023-03-11T02:53:27;2.75;;;1.33;;
71383;SDS011;67558;52.166;5.004;2023-03-11T02:55:55;0.60;;;0.60;;
71383;SDS011;67558;52.166;5.004;2023-03-11T02:58:20;1.73;;;1.20;;
71383;SDS011;67558;52.166;5.004;2023-03-11T03:00:46;1.13;;;1.02;;
71383;SDS011;67558;52.166;5.004;2023-03-11T03:03:11;1.70;;;1.52;;
71383;SDS011;67558;52.166;5.004;2023-03-11T03:05:36;0.80;;;0.80;;
71383;SDS011;67558;52.166;5.004;2023-03-11T03:08:02;0.93;;;0.93;;
71383;SDS011;67558;52.166;5.004;2023-03-11T03:10:27;0.60;;;0.60;;
71383;SDS011;67558;52.166;5.004;2023-03-11T03:12:53;2.00;;;0.90;;
71383;SDS011;67558;52.166;5.004;2023-03-11T03:15:18;1.13;;;1.00;;
71383;SDS011;67558;52.166;5.004;2023-03-11T03:17:44;0.80;;;0.70;;
71383;SDS011;67558;52.166;5.004;2023-03-11T03:20:10;0.60;;;0.60;;
71383;SDS011;67558;52.166;5.004;2023-03-11T03:22:38;0.73;;;0.73;;
71383;SDS011;67558;52.166;5.004;2023-03-11T03:25:05;1.80;;;0.90;;
71383;SDS011;67558;52.166;5.004;2023-03-11T03:27:32;0.50;;;0.50;;
71383;SDS011;67558;52.166;5.004;2023-03-11T03:29:58;4.00;;;0.82;;
71383;SDS011;67558;52.166;5.004;2023-03-11T03:32:24;0.70;;;0.68;;
71383;SDS011;67558;52.166;5.004;2023-03-11T03:34:49;0.60;;;0.60;;
71383;SDS011;67558;52.166;5.004;2023-03-11T03:37:14;1.25;;;1.00;;
71383;SDS011;67558;52.166;5.004;2023-03-11T03:39:40;0.60;;;0.60;;
71383;SDS011;67558;52.166;5.004;2023-03-11T03:42:05;1.35;;;1.08;;
71383;SDS011;67558;52.166;5.004;2023-03-11T03:44:31;0.73;;;0.73;;
71383;SDS011;67558;52.166;5.004;2023-03-11T03:46:57;1.10;;;1.00;;
71383;SDS011;67558;52.166;5.004;2023-03-11T03:49:22;1.45;;;1.10;;
71383;SDS011;67558;52.166;5.004;2023-03-11T03:51:48;1.17;;;1.08;;
71383;SDS011;67558;52.166;5.004;2023-03-11T03:54:13;1.58;;;1.25;;
71383;SDS011;67558;52.166;5.004;2023-03-11T03:56:39;1.08;;;0.90;;
71383;SDS011;67558;52.166;5.004;2023-03-11T03:59:04;1.40;;;1.00;;
71383;SDS011;67558;52.166;5.004;2023-03-11T04:01:30;1.75;;;0.95;;
71383;SDS011;67558;52.166;5.004;2023-03-11T04:03:55;1.55;;;0.75;;
71383;SDS011;67558;52.166;5.004;2023-03-11T04:06:21;5.25;;;1.10;;
71383;SDS011;67558;52.166;5.004;2023-03-11T04:08:49;2.85;;;0.77;;
71383;SDS011;67558;52.166;5.004;2023-03-11T04:11:16;2.67;;;1.85;;
71383;SDS011;67558;52.166;5.004;2023-03-11T04:13:41;0.98;;;0.75;;
71383;SDS011;67558;52.166;5.004;2023-03-11T04:16:08;0.82;;;0.63;;
71383;SDS011;67558;52.166;5.004;2023-03-11T04:18:38;1.65;;;0.93;;
71383;SDS011;67558;52.166;5.004;2023-03-11T04:21:04;0.88;;;0.80;;
71383;SDS011;67558;52.166;5.004;2023-03-11T04:23:30;0.60;;;0.60;;
71383;SDS011;67558;52.166;5.004;2023-03-11T04:25:55;12.73;;;1.25;;
71383;SDS011;67558;52.166;5.004;2023-03-11T04:28:21;3.08;;;0.90;;
71383;SDS011;67558;52.166;5.004;2023-03-11T04:30:46;1.02;;;0.85;;
71383;SDS011;67558;52.166;5.004;2023-03-11T04:33:11;0.95;;;0.95;;
71383;SDS011;67558;52.166;5.004;2023-03-11T04:35:37;0.93;;;0.85;;
71383;SDS011;67558;52.166;5.004;2023-03-11T04:38:03;4.03;;;1.20;;
71383;SDS011;67558;52.166;5.004;2023-03-11T04:40:29;0.80;;;0.80;;
71383;SDS011;67558;52.166;5.004;2023-03-11T04:42:54;1.40;;;1.20;;
71383;SDS011;67558;52.166;5.004;2023-03-11T04:45:19;3.88;;;0.95;;
71383;SDS011;67558;52.166;5.004;2023-03-11T04:47:49;0.90;;;0.60;;
71383;SDS011;67558;52.166;5.004;2023-03-11T04:50:15;0.70;;;0.70;;
71383;SDS011;67558;52.166;5.004;2023-03-11T04:52:41;3.83;;;0.90;;
71383;SDS011;67558;52.166;5.004;2023-03-11T04:55:07;0.88;;;0.88;;
71383;SDS011;67558;52.166;5.004;2023-03-11T04:57:33;9.00;;;1.52;;
71383;SDS011;67558;52.166;5.004;2023-03-11T04:59:59;5.90;;;0.88;;
71383;SDS011;67558;52.166;5.004;2023-03-11T05:02:24;5.10;;;1.10;;
71383;SDS011;67558;52.166;5.004;2023-03-11T05:04:49;1.75;;;1.65;;
71383;SDS011;67558;52.166;5.004;2023-03-11T05:07:15;1.27;;;1.08;;
71383;SDS011;67558;52.166;5.004;2023-03-11T05:09:40;0.85;;;0.80;;
71383;SDS011;67558;52.166;5.004;2023-03-11T05:12:06;1.48;;;1.10;;
71383;SDS011;67558;52.166;5.004;2023-03-11T05:14:33;1.52;;;0.98;;
71383;SDS011;67558;52.166;5.004;2023-03-11T05:16:59;1.02;;;0.80;;
71383;SDS011;67558;52.166;5.004;2023-03-11T05:19:24;1.15;;;0.70;;
71383;SDS011;67558;52.166;5.004;2023-03-11T05:21:55;0.80;;;0.73;;
71383;SDS011;67558;52.166;5.004;2023-03-11T05:24:21;1.15;;;0.70;;
71383;SDS011;67558;52.166;5.004;2023-03-11T05:26:47;1.48;;;1.38;;
71383;SDS011;67558;52.166;5.004;2023-03-11T05:29:12;1.60;;;0.95;;
71383;SDS011;67558;52.166;5.004;2023-03-11T05:31:38;1.02;;;0.90;;
71383;SDS011;67558;52.166;5.004;2023-03-11T05:34:03;1.55;;;0.57;;
71383;SDS011;67558;52.166;5.004;2023-03-11T05:36:29;3.78;;;0.75;;
71383;SDS011;67558;52.166;5.004;2023-03-11T05:38:54;3.88;;;1.10;;
71383;SDS011;67558;52.166;5.004;2023-03-11T05:41:20;1.02;;;0.93;;
71383;SDS011;67558;52.166;5.004;2023-03-11T05:43:45;1.02;;;0.82;;
71383;SDS011;67558;52.166;5.004;2023-03-11T05:46:10;1.85;;;1.10;;
71383;SDS011;67558;52.166;5.004;2023-03-11T05:48:37;0.50;;;0.50;;
71383;SDS011;67558;52.166;5.004;2023-03-11T05:51:06;1.25;;;0.80;;
71383;SDS011;67558;52.166;5.004;2023-03-11T05:53:32;1.60;;;1.17;;
71383;SDS011;67558;52.166;5.004;2023-03-11T05:55:58;2.08;;;1.83;;
71383;SDS011;67558;52.166;5.004;2023-03-11T05:58:24;2.15;;;0.93;;
71383;SDS011;67558;52.166;5.004;2023-03-11T06:00:51;4.97;;;1.27;;
71383;SDS011;67558;52.166;5.004;2023-03-11T06:03:16;0.85;;;0.70;;
71383;SDS011;67558;52.166;5.004;2023-03-11T06:05:45;2.80;;;1.05;;
71383;SDS011;67558;52.166;5.004;2023-03-11T06:08:11;10.00;;;1.20;;
71383;SDS011;67558;52.166;5.004;2023-03-11T06:10:37;1.08;;;0.90;;
71383;SDS011;67558;52.166;5.004;2023-03-11T06:13:02;3.20;;;1.25;;
71383;SDS011;67558;52.166;5.004;2023-03-11T06:15:28;1.70;;;0.70;;
71383;SDS011;67558;52.166;5.004;2023-03-11T06:17:54;1.08;;;1.02;;
71383;SDS011;67558;52.166;5.004;2023-03-11T06:20:19;1.17;;;0.88;;
71383;SDS011;67558;52.166;5.004;2023-03-11T06:22:48;0.68;;;0.68;;
71383;SDS011;67558;52.166;5.004;2023-03-11T06:25:13;7.20;;;0.82;;
71383;SDS011;67558;52.166;5.004;2023-03-11T06:27:39;0.57;;;0.57;;
71383;SDS011;67558;52.166;5.004;2023-03-11T06:30:05;0.68;;;0.63;;
71383;SDS011;67558;52.166;5.004;2023-03-11T06:32:31;2.25;;;0.88;;
71383;SDS011;67558;52.166;5.004;2023-03-11T06:34:58;1.13;;;0.70;;
71383;SDS011;67558;52.166;5.004;2023-03-11T06:37:23;0.88;;;0.70;;
71383;SDS011;67558;52.166;5.004;2023-03-11T06:39:52;1.00;;;0.90;;
71383;SDS011;67558;52.166;5.004;2023-03-11T06:42:18;1.20;;;1.10;;
71383;SDS011;67558;52.166;5.004;2023-03-11T06:44:45;3.55;;;1.33;;
71383;SDS011;67558;52.166;5.004;2023-03-11T06:47:11;1.38;;;1.20;;
71383;SDS011;67558;52.166;5.004;2023-03-11T06:49:37;0.98;;;0.88;;
71383;SDS011;67558;52.166;5.004;2023-03-11T06:52:04;7.70;;;1.65;;
71383;SDS011;67558;52.166;5.004;2023-03-11T06:54:30;1.55;;;1.25;;
71383;SDS011;67558;52.166;5.004;2023-03-11T06:56:55;0.90;;;0.63;;
71383;SDS011;67558;52.166;5.004;2023-03-11T06:59:21;1.02;;;0.85;;
71383;SDS011;67558;52.166;5.004;2023-03-11T07:01:46;1.40;;;1.00;;
71383;SDS011;67558;52.166;5.004;2023-03-11T07:04:12;1.10;;;1.00;;
71383;SDS011;67558;52.166;5.004;2023-03-11T07:06:37;0.93;;;0.80;;
71383;SDS011;67558;52.166;5.004;2023-03-11T07:09:03;1.17;;;1.00;;
71383;SDS011;67558;52.166;5.004;2023-03-11T07:11:28;1.95;;;0.85;;
71383;SDS011;67558;52.166;5.004;2023-03-11T07:13:54;0.93;;;0.77;;
71383;SDS011;67558;52.166;5.004;2023-03-11T07:16:21;1.83;;;1.50;;
71383;SDS011;67558;52.166;5.004;2023-03-11T07:18:50;1.50;;;1.40;;
71383;SDS011;67558;52.166;5.004;2023-03-11T07:21:17;0.70;;;0.65;;
71383;SDS011;67558;52.166;5.004;2023-03-11T07:23:44;4.30;;;1.83;;
71383;SDS011;67558;52.166;5.004;2023-03-11T07:26:10;1.98;;;1.50;;
71383;SDS011;67558;52.166;5.004;2023-03-11T07:28:38;5.30;;;1.27;;
71383;SDS011;67558;52.166;5.004;2023-03-11T07:31:11;1.05;;;0.95;;
71383;SDS011;67558;52.166;5.004;2023-03-11T07:33:38;1.30;;;1.20;;
71383;SDS011;67558;52.166;5.004;2023-03-11T07:36:04;1.20;;;0.98;;
71383;SDS011;67558;52.166;5.004;2023-03-11T07:38:31;3.85;;;1.33;;
71383;SDS011;67558;52.166;5.004;2023-03-11T07:40:57;1.63;;;1.27;;
71383;SDS011;67558;52.166;5.004;2023-03-11T07:43:23;1.52;;;1.00;;
71383;SDS011;67558;52.166;5.004;2023-03-11T07:45:48;0.98;;;0.88;;
71383;SDS011;67558;52.166;5.004;2023-03-11T07:48:15;6.38;;;1.83;;
71383;SDS011;67558;52.166;5.004;2023-03-11T07:50:41;5.40;;;1.98;;
71383;SDS011;67558;52.166;5.004;2023-03-11T07:53:06;3.13;;;1.10;;
71383;SDS011;67558;52.166;5.004;2023-03-11T07:55:32;1.27;;;1.00;;
71383;SDS011;67558;52.166;5.004;2023-03-11T07:57:57;3.08;;;1.48;;
71383;SDS011;67558;52.166;5.004;2023-03-11T08:00:22;1.60;;;1.50;;
71383;SDS011;67558;52.166;5.004;2023-03-11T08:02:48;3.05;;;1.30;;
71383;SDS011;67558;52.166;5.004;2023-03-11T08:05:13;3.33;;;1.60;;
71383;SDS011;67558;52.166;5.004;2023-03-11T08:07:39;20.75;;;2.08;;
71383;SDS011;67558;52.166;5.004;2023-03-11T08:10:04;4.03;;;2.10;;
71383;SDS011;67558;52.166;5.004;2023-03-11T08:12:30;2.33;;;1.33;;
71383;SDS011;67558;52.166;5.004;2023-03-11T08:14:56;2.58;;;1.83;;
71383;SDS011;67558;52.166;5.004;2023-03-11T08:17:21;4.07;;;1.60;;
71383;SDS011;67558;52.166;5.004;2023-03-11T08:19:47;2.95;;;1.80;;
71383;SDS011;67558;52.166;5.004;2023-03-11T08:22:13;3.45;;;2.10;;
71383;SDS011;67558;52.166;5.004;2023-03-11T08:24:39;6.00;;;1.75;;
71383;SDS011;67558;52.166;5.004;2023-03-11T08:27:04;1.60;;;1.38;;
71383;SDS011;67558;52.166;5.004;2023-03-11T08:29:30;2.20;;;1.92;;
71383;SDS011;67558;52.166;5.004;2023-03-11T08:31:55;2.50;;;1.08;;
71383;SDS011;67558;52.166;5.004;2023-03-11T08:34:21;2.85;;;1.58;;
71383;SDS011;67558;52.166;5.004;2023-03-11T08:36:46;4.22;;;1.85;;
71383;SDS011;67558;52.166;5.004;2023-03-11T08:39:11;2.40;;;1.45;;
71383;SDS011;67558;52.166;5.004;2023-03-11T08:41:37;1.60;;;1.02;;
71383;SDS011;67558;52.166;5.004;2023-03-11T08:44:03;3.28;;;1.30;;
71383;SDS011;67558;52.166;5.004;2023-03-11T08:46:29;1.92;;;1.73;;
71383;SDS011;67558;52.166;5.004;2023-03-11T08:48:57;3.95;;;1.70;;
71383;SDS011;67558;52.166;5.004;2023-03-11T08:51:23;2.92;;;2.10;;
71383;SDS011;67558;52.166;5.004;2023-03-11T08:53:49;3.50;;;1.75;;
71383;SDS011;67558;52.166;5.004;2023-03-11T08:56:14;5.85;;;1.67;;
71383;SDS011;67558;52.166;5.004;2023-03-11T08:58:40;3.85;;;2.85;;
71383;SDS011;67558;52.166;5.004;2023-03-11T09:01:06;2.80;;;2.10;;
71383;SDS011;67558;52.166;5.004;2023-03-11T09:03:33;1.88;;;1.30;;
71383;SDS011;67558;52.166;5.004;2023-03-11T09:06:00;4.03;;;1.50;;
71383;SDS011;67558;52.166;5.004;2023-03-11T09:08:30;3.30;;;1.25;;
71383;SDS011;67558;52.166;5.004;2023-03-11T09:10:55;4.93;;;1.40;;
71383;SDS011;67558;52.166;5.004;2023-03-11T09:13:21;1.73;;;1.08;;
71383;SDS011;67558;52.166;5.004;2023-03-11T09:15:47;2.20;;;1.50;;
71383;SDS011;67558;52.166;5.004;2023-03-11T09:18:13;1.95;;;1.85;;
71383;SDS011;67558;52.166;5.004;2023-03-11T09:20:39;3.85;;;1.73;;
71383;SDS011;67558;52.166;5.004;2023-03-11T09:23:05;1.73;;;1.27;;
71383;SDS011;67558;52.166;5.004;2023-03-11T09:25:31;2.10;;;1.15;;
71383;SDS011;67558;52.166;5.004;2023-03-11T09:27:57;3.50;;;1.38;;
71383;SDS011;67558;52.166;5.004;2023-03-11T09:30:22;1.45;;;1.10;;
71383;SDS011;67558;52.166;5.004;2023-03-11T09:32:47;1.77;;;1.17;;
71383;SDS011;67558;52.166;5.004;2023-03-11T09:35:13;2.78;;;1.40;;
71383;SDS011;67558;52.166;5.004;2023-03-11T09:37:38;1.77;;;1.17;;
71383;SDS011;67558;52.166;5.004;2023-03-11T09:40:04;1.98;;;1.15;;
71383;SDS011;67558;52.166;5.004;2023-03-11T09:42:33;4.35;;;1.38;;
71383;SDS011;67558;52.166;5.004;2023-03-11T09:45:28;4.57;;;1.17;;
71383;SDS011;67558;52.166;5.004;2023-03-11T09:50:37;2.05;;;1.85;;
71383;SDS011;67558;52.166;5.004;2023-03-11T09:53:21;2.53;;;1.20;;
71383;SDS011;67558;52.166;5.004;2023-03-11T09:55:57;1.55;;;1.45;;
71383;SDS011;67558;52.166;5.004;2023-03-11T09:58:35;4.90;;;1.55;;
71383;SDS011;67558;52.166;5.004;2023-03-11T10:03:48;1.20;;;1.10;;
71383;SDS011;67558;52.166;5.004;2023-03-11T10:06:27;4.97;;;1.15;;
71383;SDS011;67558;52.166;5.004;2023-03-11T10:09:40;1.80;;;1.00;;
71383;SDS011;67558;52.166;5.004;2023-03-11T10:15:21;2.80;;;1.42;;
71383;SDS011;67558;52.166;5.004;2023-03-11T10:24:16;2.90;;;1.55;;
71383;SDS011;67558;52.166;5.004;2023-03-11T10:26:57;2.65;;;1.35;;
71383;SDS011;67558;52.166;5.004;2023-03-11T10:29:29;8.25;;;1.38;;
71383;SDS011;67558;52.166;5.004;2023-03-11T10:32:12;4.45;;;1.65;;
71383;SDS011;67558;52.166;5.004;2023-03-11T10:34:47;3.50;;;1.25;;
71383;SDS011;67558;52.166;5.004;2023-03-11T10:39:48;1.40;;;1.30;;
71383;SDS011;67558;52.166;5.004;2023-03-11T10:42:15;1.80;;;1.30;;
71383;SDS011;67558;52.166;5.004;2023-03-11T10:44:47;2.67;;;1.70;;
71383;SDS011;67558;52.166;5.004;2023-03-11T10:47:16;1.45;;;1.05;;
71383;SDS011;67558;52.166;5.004;2023-03-11T10:49:44;3.83;;;1.48;;
71383;SDS011;67558;52.166;5.004;2023-03-11T10:52:10;2.70;;;1.45;;
71383;SDS011;67558;52.166;5.004;2023-03-11T10:54:37;1.95;;;1.33;;
71383;SDS011;67558;52.166;5.004;2023-03-11T10:57:31;3.17;;;1.50;;
71383;SDS011;67558;52.166;5.004;2023-03-11T11:00:06;2.97;;;2.00;;
71383;SDS011;67558;52.166;5.004;2023-03-11T11:02:48;2.33;;;1.77;;
71383;SDS011;67558;52.166;5.004;2023-03-11T11:07:47;2.67;;;2.10;;
71383;SDS011;67558;52.166;5.004;2023-03-11T11:15:35;1.90;;;1.80;;
71383;SDS011;67558;52.166;5.004;2023-03-11T11:18:17;2.90;;;1.80;;
71383;SDS011;67558;52.166;5.004;2023-03-11T11:21:00;2.17;;;1.85;;
71383;SDS011;67558;52.166;5.004;2023-03-11T11:23:45;1.77;;;1.67;;
71383;SDS011;67558;52.166;5.004;2023-03-11T11:26:25;3.17;;;2.03;;
71383;SDS011;67558;52.166;5.004;2023-03-11T11:31:34;1.80;;;1.70;;
71383;SDS011;67558;52.166;5.004;2023-03-11T11:34:00;3.30;;;3.08;;
71383;SDS011;67558;52.166;5.004;2023-03-11T11:36:30;3.38;;;1.65;;
71383;SDS011;67558;52.166;5.004;2023-03-11T11:38:58;1.88;;;1.77;;
71383;SDS011;67558;52.166;5.004;2023-03-11T11:41:28;1.67;;;1.58;;
71383;SDS011;67558;52.166;5.004;2023-03-11T11:43:59;1.90;;;1.80;;
71383;SDS011;67558;52.166;5.004;2023-03-11T11:46:37;1.70;;;1.60;;
71383;SDS011;67558;52.166;5.004;2023-03-11T11:52:04;3.75;;;1.80;;
71383;SDS011;67558;52.166;5.004;2023-03-11T11:57:18;1.45;;;1.35;;
71383;SDS011;67558;52.166;5.004;2023-03-11T11:59:46;1.67;;;1.58;;
71383;SDS011;67558;52.166;5.004;2023-03-11T12:15:34;1.88;;;1.67;;
71383;SDS011;67558;52.166;5.004;2023-03-11T12:18:07;1.63;;;1.52;;
71383;SDS011;67558;52.166;5.004;2023-03-11T12:20:41;2.45;;;2.25;;
71383;SDS011;67558;52.166;5.004;2023-03-11T12:31:02;1.90;;;1.55;;
71383;SDS011;67558;52.166;5.004;2023-03-11T12:39:19;5.18;;;2.38;;
71383;SDS011;67558;52.166;5.004;2023-03-11T12:44:37;3.45;;;1.38;;
71383;SDS011;67558;52.166;5.004;2023-03-11T12:49:32;2.08;;;1.58;;
71383;SDS011;67558;52.166;5.004;2023-03-11T12:54:33;2.47;;;2.28;;
71383;SDS011;67558;52.166;5.004;2023-03-11T13:05:49;1.60;;;1.50;;
71383;SDS011;67558;52.166;5.004;2023-03-11T13:08:48;1.55;;;1.45;;
71383;SDS011;67558;52.166;5.004;2023-03-11T13:16:36;2.25;;;1.52;;
71383;SDS011;67558;52.166;5.004;2023-03-11T13:21:49;3.78;;;1.77;;
71383;SDS011;67558;52.166;5.004;2023-03-11T13:32:05;2.42;;;2.22;;
71383;SDS011;67558;52.166;5.004;2023-03-11T13:40:30;2.25;;;2.05;;
71383;SDS011;67558;52.166;5.004;2023-03-11T13:43:01;4.10;;;1.98;;
71383;SDS011;67558;52.166;5.004;2023-03-11T13:45:31;2.67;;;1.70;;
71383;SDS011;67558;52.166;5.004;2023-03-11T13:50:30;1.95;;;1.85;;
71383;SDS011;67558;52.166;5.004;2023-03-11T13:53:01;2.53;;;2.42;;
71383;SDS011;67558;52.166;5.004;2023-03-11T13:55:34;1.95;;;1.70;;
71383;SDS011;67558;52.166;5.004;2023-03-11T13:58:12;2.60;;;2.35;;
71383;SDS011;67558;52.166;5.004;2023-03-11T14:00:52;1.92;;;1.70;;
71383;SDS011;67558;52.166;5.004;2023-03-11T14:03:17;2.03;;;1.88;;
71383;SDS011;67558;52.166;5.004;2023-03-11T14:05:47;1.77;;;1.67;;
71383;SDS011;67558;52.166;5.004;2023-03-11T14:08:28;3.50;;;2.40;;
71383;SDS011;67558;52.166;5.004;2023-03-11T14:11:01;1.77;;;1.67;;
71383;SDS011;67558;52.166;5.004;2023-03-11T14:13:43;2.42;;;1.90;;
71383;SDS011;67558;52.166;5.004;2023-03-11T14:19:13;5.05;;;2.60;;
71383;SDS011;67558;52.166;5.004;2023-03-11T14:21:42;2.33;;;2.22;;
71383;SDS011;67558;52.166;5.004;2023-03-11T14:24:15;2.88;;;2.20;;
71383;SDS011;67558;52.166;5.004;2023-03-11T14:26:47;2.10;;;1.98;;
71383;SDS011;67558;52.166;5.004;2023-03-11T14:29:14;3.13;;;2.55;;
71383;SDS011;67558;52.166;5.004;2023-03-11T14:31:43;2.15;;;1.95;;
71383;SDS011;67558;52.166;5.004;2023-03-11T14:36:45;2.70;;;2.00;;
71383;SDS011;67558;52.166;5.004;2023-03-11T14:39:34;2.13;;;1.92;;
71383;SDS011;67558;52.166;5.004;2023-03-11T14:42:10;2.45;;;2.00;;
71383;SDS011;67558;52.166;5.004;2023-03-11T14:44:44;2.65;;;2.30;;
71383;SDS011;67558;52.166;5.004;2023-03-11T14:47:31;2.40;;;2.20;;
71383;SDS011;67558;52.166;5.004;2023-03-11T14:49:57;2.50;;;2.00;;
71383;SDS011;67558;52.166;5.004;2023-03-11T14:52:28;2.63;;;2.42;;
71383;SDS011;67558;52.166;5.004;2023-03-11T14:55:02;6.03;;;3.10;;
71383;SDS011;67558;52.166;5.004;2023-03-11T14:57:34;3.65;;;3.35;;
71383;SDS011;67558;52.166;5.004;2023-03-11T15:00:03;2.65;;;2.45;;
71383;SDS011;67558;52.166;5.004;2023-03-11T15:08:10;5.45;;;2.38;;
71383;SDS011;67558;52.166;5.004;2023-03-11T15:10:36;2.55;;;2.33;;
71383;SDS011;67558;52.166;5.004;2023-03-11T15:13:03;2.72;;;2.53;;
71383;SDS011;67558;52.166;5.004;2023-03-11T15:15:30;2.95;;;2.75;;
71383;SDS011;67558;52.166;5.004;2023-03-11T15:17:57;2.95;;;2.65;;
71383;SDS011;67558;52.166;5.004;2023-03-11T15:20:34;2.42;;;2.28;;
71383;SDS011;67558;52.166;5.004;2023-03-11T15:23:05;7.57;;;3.05;;
71383;SDS011;67558;52.166;5.004;2023-03-11T15:25:35;2.58;;;2.38;;
71383;SDS011;67558;52.166;5.004;2023-03-11T15:33:48;2.70;;;2.55;;
71383;SDS011;67558;52.166;5.004;2023-03-11T15:37:04;3.28;;;2.53;;
71383;SDS011;67558;52.166;5.004;2023-03-11T15:39:47;5.28;;;2.70;;
71383;SDS011;67558;52.166;5.004;2023-03-11T15:42:36;3.97;;;2.63;;
71383;SDS011;67558;52.166;5.004;2023-03-11T15:45:08;3.97;;;3.10;;
71383;SDS011;67558;52.166;5.004;2023-03-11T15:47:45;2.42;;;2.30;;
71383;SDS011;67558;52.166;5.004;2023-03-11T15:50:13;6.38;;;2.83;;
71383;SDS011;67558;52.166;5.004;2023-03-11T15:52:55;7.82;;;3.38;;
71383;SDS011;67558;52.166;5.004;2023-03-11T15:55:24;1.88;;;1.77;;
71383;SDS011;67558;52.166;5.004;2023-03-11T15:58:00;3.40;;;2.10;;
71383;SDS011;67558;52.166;5.004;2023-03-11T16:00:29;2.40;;;2.28;;
71383;SDS011;67558;52.166;5.004;2023-03-11T16:02:55;6.30;;;3.10;;
71383;SDS011;67558;52.166;5.004;2023-03-11T16:05:22;2.15;;;2.03;;
71383;SDS011;67558;52.166;5.004;2023-03-11T16:07:48;2.47;;;2.00;;
71383;SDS011;67558;52.166;5.004;2023-03-11T16:10:15;3.30;;;2.35;;
71383;SDS011;67558;52.166;5.004;2023-03-11T16:12:43;2.00;;;1.90;;
71383;SDS011;67558;52.166;5.004;2023-03-11T16:15:16;2.33;;;2.15;;
71383;SDS011;67558;52.166;5.004;2023-03-11T16:17:46;2.90;;;1.85;;
71383;SDS011;67558;52.166;5.004;2023-03-11T16:20:13;2.85;;;2.65;;
71383;SDS011;67558;52.166;5.004;2023-03-11T16:22:38;2.50;;;2.30;;
71383;SDS011;67558;52.166;5.004;2023-03-11T16:25:04;2.67;;;2.33;;
71383;SDS011;67558;52.166;5.004;2023-03-11T16:27:32;2.30;;;1.88;;
71383;SDS011;67558;52.166;5.004;2023-03-11T16:29:58;2.33;;;2.10;;
71383;SDS011;67558;52.166;5.004;2023-03-11T16:32:24;5.13;;;2.30;;
71383;SDS011;67558;52.166;5.004;2023-03-11T16:34:49;2.63;;;2.22;;
71383;SDS011;67558;52.166;5.004;2023-03-11T16:37:15;2.15;;;1.95;;
71383;SDS011;67558;52.166;5.004;2023-03-11T16:39:44;2.28;;;2.03;;
71383;SDS011;67558;52.166;5.004;2023-03-11T16:42:10;2.15;;;2.05;;
71383;SDS011;67558;52.166;5.004;2023-03-11T16:44:35;2.13;;;1.92;;
71383;SDS011;67558;52.166;5.004;2023-03-11T16:47:01;2.38;;;1.83;;
71383;SDS011;67558;52.166;5.004;2023-03-11T16:49:28;2.63;;;1.85;;
71383;SDS011;67558;52.166;5.004;2023-03-11T16:51:54;4.07;;;2.50;;
71383;SDS011;67558;52.166;5.004;2023-03-11T16:54:21;2.97;;;1.98;;
71383;SDS011;67558;52.166;5.004;2023-03-11T16:56:47;2.38;;;2.17;;
71383;SDS011;67558;52.166;5.004;2023-03-11T16:59:13;7.55;;;2.38;;